Time;durP1;ratioP1;P1;durP2;ratioP2;P2;SDS_P1;SDS_P2;PMS_P1;PMS_P2;Temp;Humidity;BMP_temperature;BMP_pressure;BME280_temperature;BME280_humidity;BME280_pressure;Samples;Min_cycle;Max_cycle;Signal;HPM_P1;HPM_P2
2020/12/23 00:00:01;;;;;;;;;;;23.40;44.10;;;;;;1554894;75;739;-70
2020/12/23 00:02:03;;;;;;;;;;;23.40;44.20;;;;;;1550938;74;1147;-70
2020/12/23 00:04:05;;;;;;;;;;;23.40;44.20;;;;;;1555907;75;1924;-70
2020/12/23 00:06:07;;;;;;;;;;;23.50;44.30;;;;;;1555168;75;780;-70
2020/12/23 00:08:09;;;;;;;;;;;23.40;44.20;;;;;;1554206;75;716;-69
2020/12/23 00:10:11;;;;;;;;;;;23.40;44.20;;;;;;1554288;75;741;-69
2020/12/23 00:12:13;;;;;;;;;;;23.40;44.20;;;;;;1554315;75;1086;-71
2020/12/23 00:14:15;;;;;;;;;;;23.40;44.20;;;;;;1549188;75;748;-70
2020/12/23 00:16:17;;;;;;;;;;;23.40;44.20;;;;;;1552775;75;726;-70
2020/12/23 00:18:19;;;;;;;;;;;23.40;44.20;;;;;;1554183;75;698;-70
2020/12/23 00:20:21;;;;;;;;;;;23.30;44.30;;;;;;1556692;75;784;-70
2020/12/23 00:22:22;;;;;;;;;;;23.40;44.30;;;;;;1554564;75;1134;-70
2020/12/23 00:24:24;;;;;;;;;;;23.30;44.40;;;;;;1554356;75;1943;-71
2020/12/23 00:26:26;;;;;;;;;;;23.40;44.40;;;;;;1554781;75;726;-70
2020/12/23 00:28:28;;;;;;;;;;;23.40;44.40;;;;;;1556297;75;715;-71
2020/12/23 00:30:30;;;;;;;;;;;23.40;44.40;;;;;;1551989;75;676;-70
2020/12/23 00:32:32;;;;;;;;;;;23.30;44.50;;;;;;1556059;75;1161;-70
2020/12/23 00:34:34;;;;;;;;;;;23.40;44.60;;;;;;1558391;75;679;-70
2020/12/23 00:36:36;;;;;;;;;;;23.30;44.60;;;;;;1556924;75;735;-70
2020/12/23 00:38:37;;;;;;;;;;;23.30;44.60;;;;;;1556184;75;872;-69
2020/12/23 00:40:39;;;;;;;;;;;23.30;44.60;;;;;;1554839;75;786;-69
2020/12/23 00:42:41;;;;;;;;;;;23.30;44.70;;;;;;1554429;75;1108;-69
2020/12/23 00:44:43;;;;;;;;;;;23.30;44.70;;;;;;1556455;75;1936;-69
2020/12/23 00:46:45;;;;;;;;;;;23.30;44.70;;;;;;1555469;75;776;-69
2020/12/23 00:48:47;;;;;;;;;;;23.30;44.70;;;;;;1554253;75;701;-69
2020/12/23 00:50:49;;;;;;;;;;;23.30;44.70;;;;;;1553041;75;906;-69
2020/12/23 00:52:51;;;;;;;;;;;23.30;44.70;;;;;;1553319;75;1109;-69
2020/12/23 00:54:52;;;;;;;;;;;23.30;44.70;;;;;;1559379;75;756;-70
2020/12/23 00:56:54;;;;;;;;;;;23.30;44.80;;;;;;1547303;75;742;-70
2020/12/23 00:58:56;;;;;;;;;;;23.30;44.70;;;;;;1559674;75;819;-69
2020/12/23 01:00:58;;;;;;;;;;;23.20;44.70;;;;;;1556062;75;724;-69
2020/12/23 01:03:00;;;;;;;;;;;23.30;44.70;;;;;;1559137;75;1066;-68
2020/12/23 01:05:02;;;;;;;;;;;23.30;44.70;;;;;;1556924;75;1940;-69
2020/12/23 01:07:04;;;;;;;;;;;23.30;44.70;;;;;;1554612;75;670;-66
2020/12/23 01:09:06;;;;;;;;;;;23.30;44.70;;;;;;1554881;75;864;-70
2020/12/23 01:11:08;;;;;;;;;;;23.30;44.70;;;;;;1549835;75;1136;-69
2020/12/23 01:13:10;;;;;;;;;;;23.20;44.70;;;;;;1558520;75;645;-69
2020/12/23 01:15:12;;;;;;;;;;;23.20;44.70;;;;;;1559116;75;701;-69
2020/12/23 01:17:14;;;;;;;;;;;23.30;44.70;;;;;;1556817;75;644;-68
2020/12/23 01:19:16;;;;;;;;;;;23.30;44.70;;;;;;1557433;75;762;-69
2020/12/23 01:21:18;;;;;;;;;;;23.30;44.80;;;;;;1552306;75;1141;-69
2020/12/23 01:23:20;;;;;;;;;;;23.30;44.70;;;;;;1555463;75;777;-69
2020/12/23 01:25:22;;;;;;;;;;;23.30;44.70;;;;;;1556034;75;1951;-69
2020/12/23 01:27:24;;;;;;;;;;;23.20;44.60;;;;;;1556882;75;724;-69
2020/12/23 01:29:25;;;;;;;;;;;23.30;44.70;;;;;;1554797;75;668;-70
2020/12/23 01:31:27;;;;;;;;;;;23.20;44.70;;;;;;1548945;75;1200;-70
2020/12/23 01:33:29;;;;;;;;;;;23.20;44.70;;;;;;1554568;75;755;-71
2020/12/23 01:35:31;;;;;;;;;;;23.20;44.70;;;;;;1554541;75;764;-71
2020/12/23 01:37:33;;;;;;;;;;;23.20;44.70;;;;;;1554174;75;738;-70
2020/12/23 01:39:35;;;;;;;;;;;23.20;44.70;;;;;;1549708;75;759;-70
2020/12/23 01:41:37;;;;;;;;;;;23.20;44.80;;;;;;1554315;75;1144;-68
2020/12/23 01:43:40;;;;;;;;;;;23.20;44.70;;;;;;1554203;75;752;-70
2020/12/23 01:45:42;;;;;;;;;;;23.20;44.80;;;;;;1553907;75;1902;-70
2020/12/23 01:47:44;;;;;;;;;;;23.20;44.70;;;;;;1554284;75;690;-70
2020/12/23 01:49:46;;;;;;;;;;;23.20;44.80;;;;;;1553500;75;731;-70
2020/12/23 01:51:49;;;;;;;;;;;23.20;44.80;;;;;;1554467;75;1212;-70
2020/12/23 01:53:51;;;;;;;;;;;23.20;44.70;;;;;;1548581;75;747;-70
2020/12/23 01:55:53;;;;;;;;;;;23.20;44.80;;;;;;1550796;75;727;-70
2020/12/23 01:57:54;;;;;;;;;;;23.20;44.80;;;;;;1550329;75;743;-69
2020/12/23 01:59:56;;;;;;;;;;;23.20;44.90;;;;;;1554719;75;774;-70
2020/12/23 02:02:09;;;;;;;;;;;23.20;44.90;;;;;;1562420;74;1126;-70
2020/12/23 02:04:11;;;;;;;;;;;23.20;45.00;;;;;;1553912;75;1956;-70
2020/12/23 02:06:13;;;;;;;;;;;23.20;45.00;;;;;;1559252;75;715;-70
2020/12/23 02:08:14;;;;;;;;;;;23.20;45.00;;;;;;1550436;75;698;-70
2020/12/23 02:10:16;;;;;;;;;;;23.10;45.00;;;;;;1554477;75;736;-69
2020/12/23 02:12:18;;;;;;;;;;;23.20;45.00;;;;;;1554474;75;1155;-70
2020/12/23 02:14:20;;;;;;;;;;;23.20;45.00;;;;;;1555698;75;791;-70
2020/12/23 02:16:22;;;;;;;;;;;23.20;45.00;;;;;;1552817;75;763;-70
2020/12/23 02:18:24;;;;;;;;;;;23.20;45.00;;;;;;1550395;75;718;-71
2020/12/23 02:20:26;;;;;;;;;;;23.20;45.20;;;;;;1554429;75;748;-71
2020/12/23 02:22:29;;;;;;;;;;;23.20;45.20;;;;;;1554198;75;1126;-72
2020/12/23 02:24:31;;;;;;;;;;;23.20;45.30;;;;;;1551544;75;1937;-72
2020/12/23 02:26:33;;;;;;;;;;;23.20;45.20;;;;;;1550443;75;708;-73
2020/12/23 02:28:35;;;;;;;;;;;23.30;45.20;;;;;;1554493;75;730;-72
2020/12/23 02:30:37;;;;;;;;;;;23.30;45.20;;;;;;1554381;75;827;-72
2020/12/23 02:32:38;;;;;;;;;;;23.30;45.20;;;;;;1550177;75;1148;-73
2020/12/23 02:34:40;;;;;;;;;;;23.30;45.10;;;;;;1550781;75;821;-73
2020/12/23 02:36:43;;;;;;;;;;;23.40;45.10;;;;;;1556445;75;760;-71
2020/12/23 02:38:45;;;;;;;;;;;23.40;45.00;;;;;;1561644;75;735;-72
2020/12/23 02:40:47;;;;;;;;;;;23.30;45.00;;;;;;1554685;75;739;-77
2020/12/23 02:42:49;;;;;;;;;;;23.40;44.80;;;;;;1556618;75;1141;-75
2020/12/23 02:44:51;;;;;;;;;;;23.40;44.80;;;;;;1556166;75;1947;-76
2020/12/23 02:47:03;;;;;;;;;;;23.30;44.70;;;;;;1555338;75;761;-73
2020/12/23 02:49:05;;;;;;;;;;;23.30;44.70;;;;;;1556505;75;1625;-73
2020/12/23 02:51:07;;;;;;;;;;;23.30;44.70;;;;;;1559013;75;1122;-72
2020/12/23 02:53:09;;;;;;;;;;;23.30;44.70;;;;;;1555979;75;726;-72
2020/12/23 02:55:11;;;;;;;;;;;23.30;44.70;;;;;;1554216;75;724;-73
2020/12/23 02:57:13;;;;;;;;;;;23.30;44.70;;;;;;1557950;75;728;-74
2020/12/23 02:59:15;;;;;;;;;;;23.30;44.70;;;;;;1558073;75;642;-71
2020/12/23 03:01:17;;;;;;;;;;;23.30;44.70;;;;;;1554770;75;1148;-71
2020/12/23 03:03:19;;;;;;;;;;;23.40;44.60;;;;;;1551364;75;975;-73
2020/12/23 03:05:20;;;;;;;;;;;23.30;44.60;;;;;;1558838;75;1928;-72
2020/12/23 03:07:22;;;;;;;;;;;23.40;44.60;;;;;;1556295;75;783;-72
2020/12/23 03:09:24;;;;;;;;;;;23.20;44.40;;;;;;1555357;75;761;-71
2020/12/23 03:11:26;;;;;;;;;;;23.30;44.50;;;;;;1561561;74;1148;-72
2020/12/23 03:13:28;;;;;;;;;;;23.30;44.40;;;;;;1552967;75;835;-72
2020/12/23 03:15:30;;;;;;;;;;;23.40;44.50;;;;;;1555963;75;724;-72
2020/12/23 03:17:32;;;;;;;;;;;23.30;44.50;;;;;;1556253;75;698;-72
2020/12/23 03:19:34;;;;;;;;;;;23.30;44.50;;;;;;1559597;75;775;-73
2020/12/23 03:23:40;;;;;;;;;;;23.30;44.50;;;;;;1513697;77;683;-55
2020/12/23 03:25:42;;;;;;;;;;;23.20;44.40;;;;;;1519256;77;1948;-55
2020/12/23 03:27:44;;;;;;;;;;;23.40;44.40;;;;;;1520376;77;686;-54
2020/12/23 03:29:46;;;;;;;;;;;23.30;44.40;;;;;;1517415;77;823;-53
2020/12/23 03:31:48;;;;;;;;;;;23.40;44.50;;;;;;1518946;77;1192;-53
2020/12/23 03:33:50;;;;;;;;;;;23.30;44.40;;;;;;1516367;77;673;-56
2020/12/23 03:35:51;;;;;;;;;;;23.40;44.60;;;;;;1521684;77;779;-55
2020/12/23 03:37:53;;;;;;;;;;;23.30;44.60;;;;;;1518080;77;740;-54
2020/12/23 03:39:55;;;;;;;;;;;23.30;44.70;;;;;;1512583;77;739;-54
2020/12/23 03:41:57;;;;;;;;;;;23.30;44.80;;;;;;1520295;76;1108;-57
2020/12/23 03:43:59;;;;;;;;;;;23.30;44.70;;;;;;1517184;77;1087;-55
2020/12/23 03:46:01;;;;;;;;;;;23.30;44.90;;;;;;1525987;77;1931;-55
2020/12/23 03:48:03;;;;;;;;;;;23.20;45.00;;;;;;1520486;77;705;-55
2020/12/23 03:50:05;;;;;;;;;;;23.30;44.90;;;;;;1518097;77;702;-54
2020/12/23 03:52:06;;;;;;;;;;;23.30;45.20;;;;;;1519669;77;730;-53
2020/12/23 03:54:08;;;;;;;;;;;23.30;45.10;;;;;;1516550;77;673;-54
2020/12/23 03:56:11;;;;;;;;;;;23.20;45.20;;;;;;1513992;77;702;-53
2020/12/23 03:58:13;;;;;;;;;;;23.20;45.40;;;;;;1518177;77;725;-57
2020/12/23 04:00:15;;;;;;;;;;;23.30;45.60;;;;;;1514765;77;1151;-55
2020/12/23 04:02:17;;;;;;;;;;;23.30;45.70;;;;;;1519215;77;750;-53
2020/12/23 04:04:19;;;;;;;;;;;23.20;45.70;;;;;;1526104;77;754;-53
2020/12/23 04:06:21;;;;;;;;;;;23.30;45.80;;;;;;1520406;77;1940;-53
2020/12/23 04:08:22;;;;;;;;;;;23.20;45.80;;;;;;1517391;77;770;-54
2020/12/23 04:10:24;;;;;;;;;;;23.30;46.00;;;;;;1516977;77;1131;-56
2020/12/23 04:12:26;;;;;;;;;;;23.30;46.00;;;;;;1518843;77;706;-57
2020/12/23 04:14:28;;;;;;;;;;;23.30;46.00;;;;;;1518986;77;693;-57
2020/12/23 04:16:30;;;;;;;;;;;23.30;46.00;;;;;;1521802;77;688;-55
2020/12/23 04:18:32;;;;;;;;;;;23.30;46.00;;;;;;1513050;77;701;-55
2020/12/23 04:20:34;;;;;;;;;;;23.30;46.10;;;;;;1526023;77;1159;-54
2020/12/23 04:22:36;;;;;;;;;;;23.30;46.00;;;;;;1519206;77;819;-55
2020/12/23 04:24:38;;;;;;;;;;;23.30;46.10;;;;;;1515606;77;683;-55
2020/12/23 04:26:39;;;;;;;;;;;23.30;46.30;;;;;;1520912;77;1924;-56
2020/12/23 04:28:41;;;;;;;;;;;23.40;46.10;;;;;;1520256;77;708;-55
2020/12/23 04:30:47;;;;;;;;;;;23.40;46.10;;;;;;1519640;77;1195;-53
2020/12/23 04:32:47;;;;;;;;;;;23.40;46.00;;;;;;1521846;77;1700;-56
2020/12/23 04:34:49;;;;;;;;;;;23.40;46.00;;;;;;1522434;77;770;-58
2020/12/23 04:36:50;;;;;;;;;;;23.40;46.10;;;;;;1519530;77;697;-57
2020/12/23 04:38:52;;;;;;;;;;;23.40;46.00;;;;;;1522039;77;717;-57
2020/12/23 04:40:54;;;;;;;;;;;23.50;46.00;;;;;;1524655;77;1088;-56
2020/12/23 04:42:56;;;;;;;;;;;23.50;46.10;;;;;;1485032;79;1369;-56
2020/12/23 04:44:58;;;;;;;;;;;23.50;46.10;;;;;;1475329;78;1944;-56
2020/12/23 04:47:00;;;;;;;;;;;23.50;46.40;;;;;;1455893;79;789;-56
2020/12/23 04:49:02;;;;;;;;;;;23.50;46.50;;;;;;1465293;80;684;-56
2020/12/23 04:51:04;;;;;;;;;;;23.40;46.20;;;;;;1471336;78;1210;-55
2020/12/23 04:53:06;;;;;;;;;;;23.40;46.10;;;;;;1457176;80;739;-55
2020/12/23 04:55:08;;;;;;;;;;;23.50;46.30;;;;;;1510849;77;667;-55
2020/12/23 04:57:10;;;;;;;;;;;23.50;46.10;;;;;;1514043;77;694;-54
2020/12/23 04:59:12;;;;;;;;;;;23.60;46.00;;;;;;1521210;77;680;-55
2020/12/23 05:01:14;;;;;;;;;;;23.60;46.00;;;;;;1533357;76;1141;-56
2020/12/23 05:03:16;;;;;;;;;;;23.60;46.00;;;;;;1523429;77;720;-54
2020/12/23 05:05:18;;;;;;;;;;;23.50;46.00;;;;;;1521802;77;1948;-57
2020/12/23 05:07:22;;;;;;;;;;;23.60;46.00;;;;;;1517466;77;824;-57
2020/12/23 05:09:24;;;;;;;;;;;23.60;46.00;;;;;;1532728;77;707;-54
2020/12/23 05:11:26;;;;;;;;;;;23.60;46.00;;;;;;1493841;78;1153;-54
2020/12/23 05:13:28;;;;;;;;;;;23.50;46.00;;;;;;1467404;80;733;-54
2020/12/23 05:15:30;;;;;;;;;;;23.60;45.90;;;;;;1521351;77;710;-54
2020/12/23 05:17:32;;;;;;;;;;;23.60;45.90;;;;;;1524365;77;767;-56
2020/12/23 05:19:34;;;;;;;;;;;23.60;46.00;;;;;;1527920;77;766;-56
2020/12/23 05:21:36;;;;;;;;;;;23.60;46.10;;;;;;1479598;78;1332;-56
2020/12/23 05:23:37;;;;;;;;;;;23.70;46.00;;;;;;1516548;77;809;-57
2020/12/23 05:25:39;;;;;;;;;;;23.70;46.00;;;;;;1505670;77;1933;-55
2020/12/23 05:27:42;;;;;;;;;;;23.70;46.00;;;;;;1533967;77;723;-57
2020/12/23 05:29:47;;;;;;;;;;;23.60;45.90;;;;;;1522463;77;706;-56
2020/12/23 05:31:49;;;;;;;;;;;23.70;46.10;;;;;;1466836;78;1181;-55
2020/12/23 05:33:51;;;;;;;;;;;23.60;46.00;;;;;;1477798;78;788;-55
2020/12/23 05:35:54;;;;;;;;;;;23.60;45.90;;;;;;1465583;79;747;-56
2020/12/23 05:37:57;;;;;;;;;;;23.70;45.90;;;;;;1458669;79;1313;-55
2020/12/23 05:39:59;;;;;;;;;;;23.60;45.80;;;;;;1460503;80;765;-55
2020/12/23 05:42:01;;;;;;;;;;;23.70;45.90;;;;;;1460748;80;1116;-55
2020/12/23 05:44:05;;;;;;;;;;;23.70;45.80;;;;;;1454517;79;729;-55
2020/12/23 05:46:07;;;;;;;;;;;23.80;45.80;;;;;;1458808;79;1921;-57
2020/12/23 05:48:13;;;;;;;;;;;23.70;45.70;;;;;;1458120;79;744;-55
2020/12/23 05:50:14;;;;;;;;;;;23.70;45.80;;;;;;1463678;79;1194;-54
2020/12/23 05:52:17;;;;;;;;;;;23.70;45.70;;;;;;1459005;80;746;-55
2020/12/23 05:54:20;;;;;;;;;;;23.70;45.70;;;;;;1440043;80;773;-55
2020/12/23 05:56:21;;;;;;;;;;;23.70;45.70;;;;;;1460901;80;719;-57
2020/12/23 05:58:30;;;;;;;;;;;23.70;45.70;;;;;;1458337;79;691;-56
2020/12/23 06:00:32;;;;;;;;;;;23.70;45.60;;;;;;1456749;80;1267;-57
2020/12/23 06:02:35;;;;;;;;;;;23.70;45.60;;;;;;1504118;77;688;-54
2020/12/23 06:04:37;;;;;;;;;;;23.70;45.60;;;;;;1503904;77;740;-55
2020/12/23 06:06:39;;;;;;;;;;;23.80;45.60;;;;;;1502255;77;1946;-56
2020/12/23 06:08:41;;;;;;;;;;;23.60;45.50;;;;;;1502326;77;923;-56
2020/12/23 06:10:42;;;;;;;;;;;23.70;45.60;;;;;;1501742;77;1155;-56
2020/12/23 06:12:46;;;;;;;;;;;23.70;45.60;;;;;;1501608;77;779;-56
2020/12/23 06:14:52;;;;;;;;;;;23.70;45.60;;;;;;1504524;77;706;-56
2020/12/23 06:17:02;;;;;;;;;;;23.70;45.60;;;;;;1501865;77;779;-56
2020/12/23 06:19:06;;;;;;;;;;;23.80;45.60;;;;;;1497467;77;727;-55
2020/12/23 06:21:08;;;;;;;;;;;23.70;45.60;;;;;;1486636;77;1116;-54
2020/12/23 06:23:10;;;;;;;;;;;23.70;45.50;;;;;;1500967;77;674;-55
2020/12/23 06:25:12;;;;;;;;;;;23.70;45.50;;;;;;1500605;77;787;-55
2020/12/23 06:27:13;;;;;;;;;;;23.70;45.50;;;;;;1503236;77;1951;-56
2020/12/23 06:29:17;;;;;;;;;;;23.80;45.50;;;;;;1500568;77;817;-57
2020/12/23 06:31:18;;;;;;;;;;;23.70;45.50;;;;;;1505904;77;1107;-56
2020/12/23 06:33:20;;;;;;;;;;;23.70;45.50;;;;;;1502669;77;769;-57
2020/12/23 06:35:23;;;;;;;;;;;23.70;45.40;;;;;;1501328;77;794;-56
2020/12/23 06:37:26;;;;;;;;;;;23.80;45.40;;;;;;1502409;77;778;-56
2020/12/23 06:39:32;;;;;;;;;;;23.70;45.40;;;;;;1501341;77;1702;-54
2020/12/23 06:41:34;;;;;;;;;;;23.80;45.40;;;;;;1503462;77;1108;-56
2020/12/23 06:43:54;;;;;;;;;;;23.70;45.50;;;;;;1503119;77;689;-56
2020/12/23 06:45:56;;;;;;;;;;;23.80;45.50;;;;;;1502925;77;1922;-55
2020/12/23 06:48:00;;;;;;;;;;;23.70;45.50;;;;;;1500293;77;723;-55
2020/12/23 06:50:09;;;;;;;;;;;23.70;45.50;;;;;;1492787;77;1780;-56
2020/12/23 06:52:26;;;;;;;;;;;23.70;45.50;;;;;;1488498;77;1184;-57
2020/12/23 06:54:46;;;;;;;;;;;23.70;45.50;;;;;;1500313;77;795;-55
2020/12/23 06:56:48;;;;;;;;;;;23.70;45.50;;;;;;1502771;77;635;-55
2020/12/23 06:58:50;;;;;;;;;;;23.70;45.50;;;;;;1503269;77;703;-55
2020/12/23 07:00:52;;;;;;;;;;;23.70;45.50;;;;;;1500532;77;1166;-55
2020/12/23 07:02:57;;;;;;;;;;;23.70;45.40;;;;;;1503458;77;719;-54
2020/12/23 07:04:59;;;;;;;;;;;23.80;45.40;;;;;;1503712;77;694;-56
2020/12/23 07:07:01;;;;;;;;;;;23.80;45.30;;;;;;1500091;77;1935;-54
2020/12/23 07:09:04;;;;;;;;;;;23.80;45.20;;;;;;1498382;77;699;-56
2020/12/23 07:11:06;;;;;;;;;;;23.80;45.30;;;;;;1501496;77;1170;-55
2020/12/23 07:13:10;;;;;;;;;;;23.80;45.20;;;;;;1503765;77;654;-56
2020/12/23 07:15:17;;;;;;;;;;;23.80;45.10;;;;;;1501715;77;713;-56
2020/12/23 07:17:19;;;;;;;;;;;23.90;45.10;;;;;;1500811;77;711;-54
2020/12/23 07:19:21;;;;;;;;;;;23.80;45.00;;;;;;1502729;77;832;-56
2020/12/23 07:21:26;;;;;;;;;;;23.90;45.10;;;;;;1468166;79;1181;-57
2020/12/23 07:23:29;;;;;;;;;;;23.90;45.10;;;;;;1499191;77;717;-56
2020/12/23 07:25:31;;;;;;;;;;;23.80;45.00;;;;;;1500278;77;646;-57
2020/12/23 07:27:33;;;;;;;;;;;23.90;45.00;;;;;;1499974;77;1922;-58
2020/12/23 07:29:35;;;;;;;;;;;23.80;44.90;;;;;;1502186;77;710;-56
2020/12/23 07:31:38;;;;;;;;;;;23.90;44.90;;;;;;1509095;77;1134;-58
2020/12/23 07:33:40;;;;;;;;;;;23.90;45.00;;;;;;1488801;78;926;-56
2020/12/23 07:35:43;;;;;;;;;;;23.80;44.90;;;;;;1515383;77;662;-55
2020/12/23 07:37:45;;;;;;;;;;;23.90;45.00;;;;;;1517563;78;730;-55
2020/12/23 07:39:50;;;;;;;;;;;23.80;44.80;;;;;;1516604;78;718;-55
2020/12/23 07:41:55;;;;;;;;;;;23.90;44.90;;;;;;1511039;77;1150;-57
2020/12/23 07:43:57;;;;;;;;;;;23.90;45.10;;;;;;1501297;78;702;-57
2020/12/23 07:45:59;;;;;;;;;;;23.80;45.00;;;;;;1466061;79;1945;-55
2020/12/23 07:48:11;;;;;;;;;;;23.80;45.00;;;;;;1504175;78;736;-57
2020/12/23 07:50:13;;;;;;;;;;;23.90;45.10;;;;;;1506176;78;1149;-56
2020/12/23 07:52:14;;;;;;;;;;;23.70;45.20;;;;;;1504556;78;695;-57
2020/12/23 07:54:16;;;;;;;;;;;23.70;45.20;;;;;;1498919;78;735;-59
2020/12/23 07:56:18;;;;;;;;;;;23.80;45.20;;;;;;1502072;78;663;-57
2020/12/23 07:58:20;;;;;;;;;;;23.80;45.20;;;;;;1502864;78;674;-57
2020/12/23 08:00:22;;;;;;;;;;;23.80;45.40;;;;;;1505428;78;1186;-56
2020/12/23 08:02:24;;;;;;;;;;;23.80;45.50;;;;;;1501736;77;843;-56
2020/12/23 08:04:26;;;;;;;;;;;23.70;45.60;;;;;;1515932;77;798;-55
2020/12/23 08:06:28;;;;;;;;;;;23.70;45.60;;;;;;1519467;77;1917;-57
2020/12/23 08:08:30;;;;;;;;;;;23.70;45.70;;;;;;1522426;77;674;-56
2020/12/23 08:10:31;;;;;;;;;;;23.70;45.70;;;;;;1520550;76;1095;-58
2020/12/23 08:12:33;;;;;;;;;;;23.60;45.60;;;;;;1519660;77;693;-56
2020/12/23 08:14:35;;;;;;;;;;;23.60;45.70;;;;;;1522314;77;677;-55
2020/12/23 08:16:37;;;;;;;;;;;23.60;45.70;;;;;;1515955;77;739;-59
2020/12/23 08:18:39;;;;;;;;;;;23.70;45.90;;;;;;1518740;77;782;-58
2020/12/23 08:20:41;;;;;;;;;;;23.60;45.70;;;;;;1513493;77;1167;-58
2020/12/23 08:22:44;;;;;;;;;;;23.70;45.90;;;;;;1505682;77;943;-58
2020/12/23 08:24:45;;;;;;;;;;;23.60;45.80;;;;;;1503643;77;804;-57
2020/12/23 08:26:47;;;;;;;;;;;23.60;45.80;;;;;;1507024;77;1954;-57
2020/12/23 08:28:49;;;;;;;;;;;23.60;45.90;;;;;;1511397;78;792;-57
2020/12/23 08:30:51;;;;;;;;;;;23.60;45.90;;;;;;1513672;76;1218;-57
2020/12/23 08:32:57;;;;;;;;;;;23.70;46.00;;;;;;1513630;78;734;-56
2020/12/23 08:34:59;;;;;;;;;;;23.60;46.00;;;;;;1522621;78;880;-55
2020/12/23 08:37:01;;;;;;;;;;;23.70;46.10;;;;;;1520979;78;790;-56
2020/12/23 08:39:04;;;;;;;;;;;23.60;46.00;;;;;;1515657;78;902;-55
2020/12/23 08:41:07;;;;;;;;;;;23.60;45.90;;;;;;1501689;78;1177;-57
2020/12/23 08:43:09;;;;;;;;;;;23.70;46.10;;;;;;1510181;78;982;-57
2020/12/23 08:45:11;;;;;;;;;;;23.60;46.00;;;;;;1523060;78;745;-58
2020/12/23 08:47:13;;;;;;;;;;;23.70;46.10;;;;;;1514740;77;1934;-55
2020/12/23 08:49:15;;;;;;;;;;;23.70;46.00;;;;;;1460856;79;1153;-56
2020/12/23 08:51:18;;;;;;;;;;;23.70;46.20;;;;;;1516165;76;1141;-55
2020/12/23 08:53:21;;;;;;;;;;;23.70;46.10;;;;;;1504527;77;794;-56
2020/12/23 08:55:24;;;;;;;;;;;23.70;45.80;;;;;;1498661;77;1600;-55
2020/12/23 08:57:26;;;;;;;;;;;23.70;45.70;;;;;;1499394;77;747;-54
2020/12/23 08:59:28;;;;;;;;;;;23.80;45.40;;;;;;1501052;78;781;-57
2020/12/23 09:01:30;;;;;;;;;;;23.80;45.20;;;;;;1473655;79;1160;-55
2020/12/23 09:03:32;;;;;;;;;;;23.90;45.20;;;;;;1504786;78;747;-56
2020/12/23 09:05:37;;;;;;;;;;;23.80;45.10;;;;;;1505396;77;774;-56
2020/12/23 09:07:38;;;;;;;;;;;23.90;45.10;;;;;;1503399;78;1927;-57
2020/12/23 09:09:40;;;;;;;;;;;23.90;45.10;;;;;;1497245;78;770;-56
2020/12/23 09:11:43;;;;;;;;;;;23.90;45.00;;;;;;1503111;77;1131;-56
2020/12/23 09:13:45;;;;;;;;;;;23.90;45.00;;;;;;1501803;78;759;-56
2020/12/23 09:15:52;;;;;;;;;;;23.90;44.80;;;;;;1502058;77;933;-56
2020/12/23 09:17:50;;;;;;;;;;;23.90;44.80;;;;;;1509691;77;1454;-56
2020/12/23 09:19:53;;;;;;;;;;;23.90;44.80;;;;;;1504413;77;727;-55
2020/12/23 09:21:55;;;;;;;;;;;23.80;44.70;;;;;;1502904;78;1139;-53
2020/12/23 09:23:59;;;;;;;;;;;23.90;44.70;;;;;;1500554;78;729;-55
2020/12/23 09:26:01;;;;;;;;;;;23.90;44.70;;;;;;1505568;77;1136;-58
2020/12/23 09:28:12;;;;;;;;;;;23.80;44.70;;;;;;1493167;78;1953;-57
2020/12/23 09:30:14;;;;;;;;;;;23.70;44.80;;;;;;1502495;78;1204;-56
2020/12/23 09:32:16;;;;;;;;;;;23.70;45.00;;;;;;1499982;77;762;-56
2020/12/23 09:34:22;;;;;;;;;;;23.70;44.80;;;;;;1513166;78;735;-56
2020/12/23 09:36:23;;;;;;;;;;;23.80;44.90;;;;;;1503386;77;710;-57
2020/12/23 09:38:34;;;;;;;;;;;23.80;44.80;;;;;;1463987;79;1231;-56
2020/12/23 09:40:32;;;;;;;;;;;23.70;44.80;;;;;;1499337;77;1532;-55
2020/12/23 09:42:34;;;;;;;;;;;23.80;44.80;;;;;;1504328;78;727;-55
2020/12/23 09:44:37;;;;;;;;;;;23.90;44.80;;;;;;1502298;77;712;-55
2020/12/23 09:46:39;;;;;;;;;;;23.80;45.00;;;;;;1499928;78;1926;-57
2020/12/23 09:48:41;;;;;;;;;;;23.80;45.00;;;;;;1497138;78;706;-57
2020/12/23 09:50:43;;;;;;;;;;;23.80;45.00;;;;;;1499614;78;1155;-58
2020/12/23 09:52:45;;;;;;;;;;;23.80;45.00;;;;;;1497847;78;746;-58
2020/12/23 09:54:47;;;;;;;;;;;23.80;44.90;;;;;;1494183;78;826;-56
2020/12/23 09:56:50;;;;;;;;;;;23.80;45.00;;;;;;1498820;78;725;-57
2020/12/23 09:58:52;;;;;;;;;;;23.80;44.90;;;;;;1506017;77;1425;-54
2020/12/23 10:00:54;;;;;;;;;;;23.90;44.90;;;;;;1503891;78;1085;-55
2020/12/23 10:02:56;;;;;;;;;;;23.80;44.80;;;;;;1501866;78;735;-57
2020/12/23 10:04:58;;;;;;;;;;;23.80;44.80;;;;;;1506518;78;759;-57
2020/12/23 10:07:00;;;;;;;;;;;23.80;44.80;;;;;;1500008;77;1931;-55
2020/12/23 10:09:02;;;;;;;;;;;23.90;44.90;;;;;;1501410;77;741;-57
2020/12/23 10:11:04;;;;;;;;;;;23.80;44.70;;;;;;1506872;77;1155;-56
2020/12/23 10:13:06;;;;;;;;;;;23.80;44.80;;;;;;1516900;77;710;-56
2020/12/23 10:15:08;;;;;;;;;;;23.80;44.70;;;;;;1499283;77;753;-59
2020/12/23 10:17:10;;;;;;;;;;;23.90;45.00;;;;;;1513764;77;686;-55
2020/12/23 10:19:12;;;;;;;;;;;23.80;44.90;;;;;;1507853;77;679;-57
2020/12/23 10:21:13;;;;;;;;;;;23.80;45.10;;;;;;1516040;77;1187;-57
2020/12/23 10:23:15;;;;;;;;;;;23.80;45.00;;;;;;1509881;77;748;-56
2020/12/23 10:25:17;;;;;;;;;;;23.80;45.00;;;;;;1505015;77;743;-56
2020/12/23 10:27:19;;;;;;;;;;;23.70;44.90;;;;;;1519433;77;1934;-56
2020/12/23 10:29:21;;;;;;;;;;;23.80;44.90;;;;;;1510176;77;740;-56
2020/12/23 10:31:23;;;;;;;;;;;23.80;45.20;;;;;;1509270;77;1163;-55
2020/12/23 10:33:25;;;;;;;;;;;23.80;45.00;;;;;;1498660;77;732;-55
2020/12/23 10:35:27;;;;;;;;;;;23.70;45.00;;;;;;1505490;77;724;-56
2020/12/23 10:37:29;;;;;;;;;;;23.80;45.10;;;;;;1515819;77;719;-57
2020/12/23 10:39:31;;;;;;;;;;;23.80;45.10;;;;;;1522067;77;741;-57
2020/12/23 10:41:33;;;;;;;;;;;23.70;45.20;;;;;;1517461;76;1154;-56
2020/12/23 10:43:34;;;;;;;;;;;23.80;45.10;;;;;;1520702;77;658;-56
2020/12/23 10:45:36;;;;;;;;;;;23.70;45.10;;;;;;1518771;77;685;-56
2020/12/23 10:47:38;;;;;;;;;;;23.70;45.20;;;;;;1515965;77;1935;-56
2020/12/23 10:49:41;;;;;;;;;;;23.70;45.00;;;;;;1516537;77;745;-56
2020/12/23 10:51:44;;;;;;;;;;;23.80;45.20;;;;;;1508587;77;1063;-58
2020/12/23 10:53:46;;;;;;;;;;;23.80;45.10;;;;;;1519942;77;1972;-56
2020/12/23 10:55:48;;;;;;;;;;;23.70;45.00;;;;;;1521279;77;888;-56
2020/12/23 10:57:50;;;;;;;;;;;23.80;45.00;;;;;;1510280;77;725;-54
2020/12/23 10:59:52;;;;;;;;;;;23.80;44.90;;;;;;1512674;77;737;-56
2020/12/23 11:01:54;;;;;;;;;;;23.80;45.00;;;;;;1517456;77;1110;-55
2020/12/23 11:03:56;;;;;;;;;;;23.80;45.00;;;;;;1502814;77;733;-54
2020/12/23 11:05:58;;;;;;;;;;;23.80;45.00;;;;;;1500728;77;821;-54
2020/12/23 11:08:00;;;;;;;;;;;23.80;45.00;;;;;;1512084;77;1941;-54
2020/12/23 11:10:01;;;;;;;;;;;23.90;45.00;;;;;;1501017;77;1152;-56
2020/12/23 11:12:05;;;;;;;;;;;23.80;45.00;;;;;;1505443;77;1144;-56
2020/12/23 11:14:07;;;;;;;;;;;23.80;45.00;;;;;;1511726;77;702;-56
2020/12/23 11:16:15;;;;;;;;;;;23.80;45.20;;;;;;1513508;77;704;-57
2020/12/23 11:18:17;;;;;;;;;;;23.80;45.10;;;;;;1517430;77;727;-55
2020/12/23 11:20:19;;;;;;;;;;;23.80;45.30;;;;;;1515504;77;1184;-57
2020/12/23 11:22:21;;;;;;;;;;;23.80;45.20;;;;;;1514336;77;782;-56
2020/12/23 11:24:23;;;;;;;;;;;23.80;45.30;;;;;;1519220;77;694;-56
2020/12/23 11:26:25;;;;;;;;;;;23.80;45.40;;;;;;1526413;77;779;-55
2020/12/23 11:28:29;;;;;;;;;;;23.80;45.30;;;;;;1520695;77;1936;-57
2020/12/23 11:30:31;;;;;;;;;;;23.70;45.40;;;;;;1497319;77;1651;-55
2020/12/23 11:32:33;;;;;;;;;;;23.80;45.20;;;;;;1511434;77;743;-54
2020/12/23 11:34:34;;;;;;;;;;;23.70;45.00;;;;;;1517537;77;711;-52
2020/12/23 11:36:37;;;;;;;;;;;23.70;45.10;;;;;;1515920;77;741;-54
2020/12/23 11:38:39;;;;;;;;;;;23.70;45.00;;;;;;1517089;77;652;-53
2020/12/23 11:40:41;;;;;;;;;;;23.80;44.90;;;;;;1504447;77;1025;-53
2020/12/23 11:42:42;;;;;;;;;;;23.80;44.90;;;;;;1511893;77;751;-56
2020/12/23 11:44:44;;;;;;;;;;;23.80;44.80;;;;;;1508889;77;815;-56
2020/12/23 11:46:49;;;;;;;;;;;23.80;44.80;;;;;;1508817;77;795;-56
2020/12/23 11:48:51;;;;;;;;;;;23.80;44.70;;;;;;1501440;77;1942;-54
2020/12/23 11:50:53;;;;;;;;;;;23.70;44.70;;;;;;1508352;77;1136;-53
2020/12/23 11:52:55;;;;;;;;;;;23.80;44.70;;;;;;1504643;77;784;-57
2020/12/23 11:54:57;;;;;;;;;;;23.80;44.70;;;;;;1509373;77;716;-56
2020/12/23 11:56:58;;;;;;;;;;;23.70;44.70;;;;;;1506962;77;728;-55
2020/12/23 11:59:00;;;;;;;;;;;23.70;44.60;;;;;;1503750;77;672;-56
2020/12/23 12:01:02;;;;;;;;;;;23.80;44.70;;;;;;1511729;77;1222;-55
2020/12/23 12:03:04;;;;;;;;;;;23.80;44.60;;;;;;1507893;77;672;-55
2020/12/23 12:05:08;;;;;;;;;;;23.70;44.80;;;;;;1508044;77;713;-52
2020/12/23 12:07:10;;;;;;;;;;;23.70;44.70;;;;;;1502785;77;1665;-53
2020/12/23 12:09:12;;;;;;;;;;;23.80;44.60;;;;;;1505693;77;1950;-54
2020/12/23 12:11:17;;;;;;;;;;;23.80;44.70;;;;;;1508416;77;1161;-55